createdAt,value
2019-01-11T00:01:13.622Z,29.03
2019-01-11T00:03:44.069Z,30.33
2019-01-11T00:06:14.499Z,30.77
2019-01-11T00:08:44.547Z,29.63
2019-01-11T00:11:14.636Z,33.40
2019-01-11T00:13:44.690Z,31.77
2019-01-11T00:16:15.084Z,35.07
2019-01-11T00:18:45.224Z,33.57
2019-01-11T00:21:15.322Z,34.93
2019-01-11T00:23:45.481Z,34.40
2019-01-11T00:26:15.575Z,36.83
2019-01-11T00:28:47.026Z,34.53
2019-01-11T00:31:17.547Z,34.03
2019-01-11T00:33:47.610Z,34.30
2019-01-11T00:36:18.077Z,33.13
2019-01-11T00:38:48.125Z,31.13
2019-01-11T00:41:18.287Z,35.83
2019-01-11T00:43:48.430Z,36.77
2019-01-11T00:46:18.912Z,36.20
2019-01-11T00:48:48.946Z,33.43
2019-01-11T00:51:19.030Z,34.97
2019-01-11T00:53:49.088Z,37.87
2019-01-11T00:56:19.158Z,33.90
2019-01-11T00:58:49.237Z,32.33
2019-01-11T01:01:19.316Z,33.43
2019-01-11T01:03:49.372Z,33.90
2019-01-11T01:06:19.860Z,37.47
2019-01-11T01:08:50.168Z,35.23
2019-01-11T01:11:21.042Z,39.23
2019-01-11T01:13:51.171Z,37.27
2019-01-11T01:16:21.985Z,36.23
2019-01-11T01:18:52.060Z,35.77
2019-01-11T01:21:22.156Z,36.20
2019-01-11T01:23:52.221Z,35.53
2019-01-11T01:26:22.311Z,35.00
2019-01-11T01:28:52.397Z,38.03
2019-01-11T01:31:22.551Z,34.17
2019-01-11T01:33:53.115Z,33.40
2019-01-11T01:36:23.570Z,34.77
2019-01-11T01:38:53.704Z,38.70
2019-01-11T01:41:23.787Z,36.47
2019-01-11T01:43:53.840Z,37.13
2019-01-11T01:46:23.952Z,40.03
2019-01-11T01:48:54.385Z,37.97
2019-01-11T01:51:24.822Z,38.03
2019-01-11T01:53:55.758Z,35.90
2019-01-11T01:56:26.204Z,37.00
2019-01-11T01:58:56.259Z,39.57
2019-01-11T02:01:26.348Z,37.20
2019-01-11T02:03:56.483Z,34.17
2019-01-11T02:06:26.966Z,36.20
2019-01-11T02:08:57.019Z,38.87
2019-01-11T02:11:27.176Z,37.60
2019-01-11T02:13:57.255Z,40.40
2019-01-11T02:16:27.424Z,36.93
2019-01-11T02:18:57.484Z,35.23
2019-01-11T02:21:27.570Z,36.30
2019-01-11T02:23:58.037Z,36.47
2019-01-11T02:26:28.116Z,38.50
2019-01-11T02:28:58.960Z,37.17
2019-01-11T02:31:29.173Z,35.87
2019-01-11T02:33:59.532Z,37.13
2019-01-11T02:36:29.790Z,35.80
2019-01-11T02:38:59.902Z,36.70
2019-01-11T02:41:30.014Z,35.50
2019-01-11T02:44:00.345Z,37.03
2019-01-11T02:46:30.872Z,37.63
2019-01-11T02:49:00.909Z,38.00
2019-01-11T02:51:31.000Z,39.07
2019-01-11T02:54:01.400Z,33.97
2019-01-11T02:56:31.558Z,39.40
2019-01-11T02:59:02.944Z,43.93
2019-01-11T03:01:33.328Z,42.00
2019-01-11T03:04:03.377Z,38.47
2019-01-11T03:06:33.796Z,39.93
2019-01-11T03:09:05.202Z,41.90
2019-01-11T03:11:35.756Z,42.17
2019-01-11T03:14:05.903Z,40.23
2019-01-11T03:16:36.087Z,39.93
2019-01-11T03:19:06.282Z,42.43
2019-01-11T03:21:36.418Z,39.27
2019-01-11T03:24:06.806Z,38.20
2019-01-11T03:26:36.956Z,38.77
2019-01-11T03:29:07.022Z,42.70
2019-01-11T03:31:37.183Z,42.43
2019-01-11T03:34:07.254Z,43.50
2019-01-11T03:36:37.411Z,42.30
2019-01-11T03:39:10.655Z,43.20
2019-01-11T03:42:05.544Z,37.03
2019-01-11T03:44:36.021Z,41.07
2019-01-11T03:47:06.139Z,39.17
2019-01-11T03:49:36.198Z,43.23
2019-01-11T03:52:06.604Z,42.60
2019-01-11T03:54:37.092Z,37.17
2019-01-11T03:57:07.189Z,39.80
2019-01-11T03:59:37.310Z,41.37
2019-01-11T04:02:07.423Z,41.00
2019-01-11T04:04:37.549Z,41.97
2019-01-11T04:07:07.640Z,38.47
2019-01-11T04:09:38.259Z,38.57
2019-01-11T04:12:08.714Z,36.90
2019-01-11T04:14:38.769Z,39.83
2019-01-11T04:17:09.257Z,37.33
2019-01-11T04:19:39.664Z,34.20
2019-01-11T04:22:29.814Z,32.63
2019-01-11T04:25:18.041Z,36.03
2019-01-11T04:27:48.182Z,32.93
2019-01-11T04:30:21.691Z,32.00
2019-01-11T04:32:52.019Z,32.07
2019-01-11T04:35:22.099Z,32.90
2019-01-11T04:37:52.270Z,38.33
2019-01-11T04:40:22.328Z,35.83
2019-01-11T04:42:52.416Z,35.87
2019-01-11T04:45:22.467Z,38.67
2019-01-11T04:47:52.543Z,42.47
2019-01-11T04:50:22.895Z,39.43
2019-01-11T04:52:52.969Z,42.70
2019-01-11T04:55:23.030Z,38.23
2019-01-11T04:57:53.856Z,45.00
2019-01-11T05:00:25.442Z,39.43
2019-01-11T05:02:55.856Z,39.00
2019-01-11T05:05:25.908Z,38.57
2019-01-11T05:07:56.177Z,42.17
2019-01-11T05:10:26.354Z,42.33
2019-01-11T05:12:58.452Z,41.40
2019-01-11T05:15:28.526Z,40.77
2019-01-11T05:17:58.701Z,43.60
2019-01-11T05:20:28.902Z,38.73
2019-01-11T05:22:59.063Z,36.23
2019-01-11T05:25:29.174Z,35.33
2019-01-11T05:27:59.269Z,35.90
2019-01-11T05:30:29.398Z,34.87
2019-01-11T05:32:59.792Z,36.60
2019-01-11T05:35:29.844Z,35.10
2019-01-11T05:37:59.922Z,32.27
2019-01-11T05:40:30.312Z,35.57
2019-01-11T05:43:00.398Z,30.83
2019-01-11T05:45:30.450Z,29.90
2019-01-11T05:48:00.640Z,28.30
2019-01-11T05:50:30.699Z,30.63
2019-01-11T05:53:00.794Z,30.07
2019-01-11T05:55:47.674Z,29.57
2019-01-11T05:58:43.001Z,29.67
2019-01-11T06:01:14.650Z,33.77
2019-01-11T06:03:44.808Z,32.00
2019-01-11T06:06:15.024Z,31.90
2019-01-11T06:08:45.243Z,30.27
2019-01-11T06:11:15.633Z,33.37
2019-01-11T06:13:45.817Z,31.13
2019-01-11T06:16:16.175Z,30.93
2019-01-11T06:18:46.337Z,29.63
2019-01-11T06:21:16.731Z,28.70
2019-01-11T06:23:46.886Z,31.23
2019-01-11T06:26:17.074Z,30.30
2019-01-11T06:28:47.231Z,31.07
2019-01-11T06:31:17.697Z,30.13
2019-01-11T06:33:47.792Z,31.17
2019-01-11T06:36:17.945Z,26.03
2019-01-11T06:38:48.042Z,27.43
2019-01-11T06:41:18.536Z,27.03
2019-01-11T06:43:50.895Z,28.10
2019-01-11T06:46:22.788Z,27.40
2019-01-11T06:48:52.990Z,26.03
2019-01-11T06:51:23.234Z,27.07
2019-01-11T06:53:53.459Z,28.33
2019-01-11T06:56:23.564Z,27.27
2019-01-11T06:58:53.707Z,25.37
2019-01-11T07:01:23.934Z,24.80
2019-01-11T07:03:54.179Z,23.57
2019-01-11T07:06:24.254Z,20.70
2019-01-11T07:08:54.493Z,21.90
2019-01-11T07:11:24.554Z,22.70
2019-01-11T07:13:54.724Z,22.00
2019-01-11T07:16:24.858Z,20.27
2019-01-11T07:18:55.126Z,20.93
2019-01-11T07:21:25.866Z,20.37
2019-01-11T07:23:56.135Z,18.20
2019-01-11T07:26:26.282Z,21.50
2019-01-11T07:28:56.359Z,22.67
2019-01-11T07:31:30.046Z,21.20
2019-01-11T07:34:00.350Z,24.40
2019-01-11T07:36:32.935Z,24.50
2019-01-11T07:39:04.768Z,21.67
2019-01-11T07:41:34.988Z,24.40
2019-01-11T07:44:05.500Z,29.33
2019-01-11T07:46:35.662Z,28.17
2019-01-11T07:49:06.542Z,24.77
2019-01-11T07:51:36.696Z,24.03
2019-01-11T07:54:07.210Z,23.90
2019-01-11T07:56:37.379Z,22.70
2019-01-11T07:59:07.512Z,20.07
2019-01-11T08:01:37.634Z,17.70
2019-01-11T08:04:07.821Z,18.97
2019-01-11T08:06:37.927Z,17.67
2019-01-11T08:09:09.357Z,16.33
2019-01-11T08:11:39.484Z,19.50
2019-01-11T08:14:10.376Z,17.50
2019-01-11T08:16:40.425Z,14.10
2019-01-11T08:19:10.663Z,15.23
2019-01-11T08:21:41.078Z,17.73
2019-01-11T08:24:11.433Z,15.03
2019-01-11T08:26:41.516Z,15.73
2019-01-11T08:29:11.932Z,13.33
2019-01-11T08:31:42.425Z,13.77
2019-01-11T08:34:12.491Z,14.57
2019-01-11T08:36:42.619Z,14.47
2019-01-11T08:39:12.707Z,15.77
2019-01-11T08:41:42.774Z,18.10
2019-01-11T08:44:12.896Z,17.50
2019-01-11T08:46:43.605Z,18.03
2019-01-11T08:49:14.069Z,15.43
2019-01-11T08:51:45.337Z,20.47
2019-01-11T08:54:15.528Z,21.23
2019-01-11T08:56:45.705Z,17.87
2019-01-11T08:59:15.810Z,20.17
2019-01-11T09:01:45.973Z,20.80
2019-01-11T09:04:16.403Z,23.40
2019-01-11T09:06:46.915Z,21.40
2019-01-11T09:09:17.008Z,23.93
2019-01-11T09:11:47.110Z,22.20
2019-01-11T09:14:36.450Z,20.20
2019-01-11T09:17:06.524Z,21.37
2019-01-11T09:19:36.580Z,21.47
2019-01-11T09:22:06.742Z,20.97
2019-01-11T09:24:37.557Z,22.10
2019-01-11T09:27:07.693Z,18.90
2019-01-11T09:29:37.757Z,13.77
2019-01-11T09:32:07.909Z,19.97
2019-01-11T09:34:38.301Z,21.13
2019-01-11T09:37:08.402Z,16.80
2019-01-11T09:39:38.480Z,16.67
2019-01-11T09:42:09.280Z,17.83
2019-01-11T09:44:39.349Z,19.97
2019-01-11T09:47:09.843Z,20.77
2019-01-11T09:49:40.059Z,18.53
2019-01-11T09:52:10.154Z,18.73
2019-01-11T09:54:40.251Z,17.90
2019-01-11T09:57:10.782Z,14.83
2019-01-11T09:59:41.134Z,16.70
2019-01-11T10:02:25.310Z,18.93
2019-01-11T10:04:55.530Z,13.27
2019-01-11T10:07:27.053Z,18.80
2019-01-11T10:09:57.243Z,19.33
2019-01-11T10:12:27.392Z,15.77
2019-01-11T10:14:57.518Z,19.93
2019-01-11T10:17:27.963Z,19.13
2019-01-11T10:19:58.362Z,16.07
2019-01-11T10:22:28.788Z,15.47
2019-01-11T10:24:58.865Z,30.17
2019-01-11T10:27:29.481Z,15.57
2019-01-11T10:30:00.602Z,16.87
2019-01-11T10:32:31.238Z,20.53
2019-01-11T10:35:01.455Z,15.67
2019-01-11T10:37:31.503Z,15.90
2019-01-11T10:40:02.249Z,12.43
2019-01-11T10:42:32.398Z,14.90
2019-01-11T10:45:02.639Z,13.57
2019-01-11T10:47:32.788Z,16.20
2019-01-11T10:50:03.751Z,15.63
2019-01-11T10:52:39.773Z,13.10
2019-01-11T10:55:11.251Z,9.77
2019-01-11T10:57:41.869Z,12.77
2019-01-11T11:00:18.508Z,16.00
2019-01-11T11:02:49.177Z,16.23
2019-01-11T11:05:31.629Z,15.37
2019-01-11T11:08:01.719Z,14.83
2019-01-11T11:10:32.273Z,14.00
2019-01-11T11:13:02.635Z,13.70
2019-01-11T11:15:32.889Z,14.13
2019-01-11T11:18:03.493Z,15.53
2019-01-11T11:20:33.636Z,16.57
2019-01-11T11:23:03.857Z,14.63
2019-01-11T11:25:33.939Z,17.07
2019-01-11T11:28:04.018Z,15.53
2019-01-11T11:30:34.163Z,15.00
2019-01-11T11:35:51.792Z,13.50
2019-01-11T11:38:23.027Z,11.17
2019-01-11T11:40:53.163Z,11.33
2019-01-11T11:43:23.213Z,14.20
2019-01-11T11:45:53.462Z,9.57
2019-01-11T11:48:31.509Z,11.20
2019-01-11T11:51:01.605Z,11.40
2019-01-11T11:53:33.063Z,10.97
2019-01-11T11:56:03.416Z,8.70
2019-01-11T11:58:33.650Z,9.03
2019-01-11T12:01:23.044Z,7.33
2019-01-11T12:03:53.397Z,6.30
2019-01-11T12:06:23.591Z,5.23
2019-01-11T12:08:53.806Z,5.80
2019-01-11T12:11:23.944Z,6.10
2019-01-11T12:14:14.712Z,7.23
2019-01-11T12:16:44.784Z,5.37
2019-01-11T12:19:15.793Z,6.17
2019-01-11T12:21:47.891Z,8.60
2019-01-11T12:24:18.211Z,4.33
2019-01-11T12:26:48.638Z,5.43
2019-01-11T12:29:25.672Z,6.23
2019-01-11T12:31:55.835Z,7.67
2019-01-11T12:34:25.898Z,6.90
2019-01-11T12:36:56.147Z,4.67
2019-01-11T12:39:26.218Z,8.53
2019-01-11T12:41:56.358Z,5.33
2019-01-11T12:44:26.509Z,4.70
2019-01-11T12:46:56.947Z,5.30
2019-01-11T12:49:27.215Z,7.67
2019-01-11T12:51:57.303Z,6.03
2019-01-11T12:54:27.641Z,4.80
2019-01-11T12:56:57.767Z,6.13
2019-01-11T12:59:27.861Z,6.00
2019-01-11T13:01:59.021Z,5.27
2019-01-11T13:04:29.114Z,4.23
2019-01-11T13:06:59.275Z,7.30
2019-01-11T13:09:29.436Z,4.93
2019-01-11T13:12:12.814Z,4.63
2019-01-11T13:14:43.132Z,7.37
2019-01-11T13:17:14.083Z,4.83
2019-01-11T13:19:44.231Z,5.33
2019-01-11T13:22:14.342Z,4.93
2019-01-11T13:27:26.201Z,6.43
2019-01-11T13:29:56.253Z,5.23
2019-01-11T13:32:27.110Z,6.77
2019-01-11T13:34:57.272Z,6.00
2019-01-11T13:37:27.417Z,8.63
2019-01-11T13:39:56.433Z,5.40
2019-01-11T13:42:26.873Z,6.33
2019-01-11T13:44:56.910Z,6.33
2019-01-11T13:47:26.982Z,5.77
2019-01-11T13:49:57.027Z,5.17
2019-01-11T13:52:46.136Z,5.77
2019-01-11T13:55:17.505Z,5.63
2019-01-11T13:57:47.573Z,8.17
2019-01-11T14:00:18.470Z,8.13
2019-01-11T14:02:49.169Z,5.20
2019-01-11T14:05:19.228Z,5.70
2019-01-11T14:07:50.148Z,5.40
2019-01-11T14:10:20.186Z,5.73
2019-01-11T14:12:50.339Z,6.03
2019-01-11T14:15:20.422Z,6.13
2019-01-11T14:17:50.509Z,6.57
2019-01-11T14:20:20.559Z,6.80
2019-01-11T14:22:51.598Z,8.23
2019-01-11T14:25:21.733Z,8.67
2019-01-11T14:27:51.816Z,7.60
2019-01-11T14:30:21.945Z,7.60
2019-01-11T14:32:52.136Z,8.20
2019-01-11T14:35:22.194Z,8.17
2019-01-11T14:37:53.576Z,3.57
2019-01-11T14:40:23.720Z,8.77
2019-01-11T14:42:54.130Z,11.10
2019-01-11T14:45:24.193Z,10.67
2019-01-11T14:47:54.634Z,5.07
2019-01-11T14:50:43.840Z,5.73
2019-01-11T14:53:13.949Z,6.37
2019-01-11T14:55:44.063Z,8.90
2019-01-11T14:58:14.128Z,3.10
2019-01-11T15:00:44.462Z,6.73
2019-01-11T15:03:14.549Z,5.90
2019-01-11T15:05:43.517Z,6.80
2019-01-11T15:08:13.672Z,6.03
2019-01-11T15:10:43.821Z,3.70
2019-01-11T15:13:14.273Z,2.77
2019-01-11T15:15:44.381Z,6.97
2019-01-11T15:18:14.540Z,6.67
2019-01-11T15:20:44.632Z,5.50
2019-01-11T15:23:14.971Z,6.50
2019-01-11T15:25:45.074Z,6.20
2019-01-11T15:28:15.257Z,5.67
2019-01-11T15:30:46.611Z,4.50
2019-01-11T15:33:35.819Z,8.27
2019-01-11T15:36:06.264Z,8.10
2019-01-11T15:38:37.096Z,5.30
2019-01-11T15:41:07.207Z,4.07
2019-01-11T15:43:38.312Z,6.50
2019-01-11T15:46:14.924Z,5.07
2019-01-11T15:48:40.191Z,5.77
2019-01-11T15:51:10.294Z,5.50
2019-01-11T15:53:41.090Z,2.20
2019-01-11T15:56:12.838Z,4.00
2019-01-11T15:58:42.993Z,4.27
2019-01-11T16:01:25.312Z,4.00
2019-01-11T16:03:55.526Z,3.67
2019-01-11T16:06:28.156Z,3.97
2019-01-11T16:12:33.481Z,2.77
2019-01-11T16:15:31.033Z,3.73
2019-01-11T16:18:04.300Z,4.10
2019-01-11T16:20:54.360Z,4.57
2019-01-11T16:23:24.908Z,3.33
2019-01-11T16:25:55.301Z,3.37
2019-01-11T16:28:25.504Z,3.37
2019-01-11T16:30:55.772Z,2.20
2019-01-11T16:33:33.335Z,2.80
2019-01-11T16:36:03.507Z,8.33
2019-01-11T16:38:33.565Z,3.70
2019-01-11T16:41:04.319Z,2.93
2019-01-11T16:43:34.434Z,5.00
2019-01-11T16:46:20.596Z,4.93
2019-01-11T16:48:50.832Z,3.97
2019-01-11T16:51:20.996Z,3.63
2019-01-11T16:53:51.636Z,3.83
2019-01-11T16:56:21.745Z,3.93
2019-01-11T16:58:51.982Z,4.53
2019-01-11T17:01:22.194Z,2.87
2019-01-11T17:03:52.468Z,3.37
2019-01-11T17:06:22.972Z,5.20
2019-01-11T17:08:53.050Z,6.13
2019-01-11T17:11:23.318Z,5.73
2019-01-11T17:13:53.449Z,5.43
2019-01-11T17:16:22.987Z,6.13
2019-01-11T17:18:53.117Z,3.90
2019-01-11T17:21:23.364Z,6.27
2019-01-11T17:23:53.424Z,8.33
2019-01-11T17:26:23.530Z,4.57
2019-01-11T17:28:53.579Z,6.07
2019-01-11T17:31:23.836Z,7.53
2019-01-11T17:33:55.092Z,5.50
2019-01-11T17:36:25.685Z,6.20
2019-01-11T17:38:56.560Z,7.97
2019-01-11T17:41:26.672Z,7.83
2019-01-11T17:43:56.711Z,5.83
2019-01-11T17:46:32.004Z,4.20
2019-01-11T17:49:02.048Z,7.90
2019-01-11T17:51:33.496Z,5.87
2019-01-11T17:54:03.648Z,4.57
2019-01-11T17:56:33.732Z,5.27
2019-01-11T18:01:45.094Z,5.00
2019-01-11T18:04:15.137Z,5.10
2019-01-11T18:06:45.586Z,5.70
2019-01-11T18:09:15.646Z,3.63
2019-01-11T18:11:45.872Z,5.03
2019-01-11T18:14:16.067Z,4.40
2019-01-11T18:16:46.311Z,5.00
2019-01-11T18:19:16.486Z,3.70
2019-01-11T18:21:47.635Z,2.10
2019-01-11T18:24:17.878Z,5.83
2019-01-11T18:26:48.121Z,5.20
2019-01-11T18:29:18.654Z,2.83
2019-01-11T18:31:49.903Z,2.77
2019-01-11T18:34:19.976Z,3.40
2019-01-11T18:36:50.206Z,4.73
2019-01-11T18:39:21.314Z,4.90
2019-01-11T18:41:51.483Z,4.00
2019-01-11T18:44:21.562Z,3.33
2019-01-11T18:46:51.719Z,3.03
2019-01-11T18:49:22.142Z,5.10
2019-01-11T18:51:52.249Z,5.60
2019-01-11T18:54:22.475Z,5.40
2019-01-11T18:56:52.901Z,5.40
2019-01-11T18:59:23.130Z,2.57
2019-01-11T19:01:53.294Z,7.60
2019-01-11T19:04:23.737Z,5.23
2019-01-11T19:06:53.831Z,6.07
2019-01-11T19:09:24.290Z,7.47
2019-01-11T19:11:54.833Z,3.77
2019-01-11T19:14:34.483Z,6.93
2019-01-11T19:17:04.658Z,5.67
2019-01-11T19:19:34.848Z,5.93
2019-01-11T19:22:05.455Z,7.77
2019-01-11T19:24:35.772Z,6.73
2019-01-11T19:27:06.512Z,4.47
2019-01-11T19:29:43.608Z,6.80
2019-01-11T19:32:13.771Z,8.20
2019-01-11T19:34:44.379Z,8.13
2019-01-11T19:37:14.546Z,7.33
2019-01-11T19:39:44.600Z,6.90
2019-01-11T19:42:14.907Z,11.20
2019-01-11T19:44:45.054Z,7.63
2019-01-11T19:47:15.137Z,6.37
2019-01-11T19:49:45.311Z,8.20
2019-01-11T19:52:15.497Z,7.47
2019-01-11T19:54:45.655Z,8.10
2019-01-11T20:00:02.904Z,8.73
2019-01-11T20:02:34.668Z,7.47
2019-01-11T20:05:06.408Z,3.97
2019-01-11T20:07:36.663Z,5.60
2019-01-11T20:10:19.989Z,5.83
2019-01-11T20:12:50.235Z,7.00
2019-01-11T20:15:20.452Z,5.30
2019-01-11T20:17:50.831Z,4.20
2019-01-11T20:20:21.175Z,5.47
2019-01-11T20:25:39.075Z,5.10
2019-01-11T20:28:09.766Z,3.50
2019-01-11T20:30:40.285Z,7.20
2019-01-11T20:33:10.352Z,5.20
2019-01-11T20:35:40.472Z,7.77
2019-01-11T20:38:17.905Z,5.27
2019-01-11T20:40:48.086Z,6.37
2019-01-11T20:43:18.149Z,7.10
2019-01-11T20:45:48.654Z,7.80
2019-01-11T20:48:18.786Z,9.27
2019-01-11T20:50:49.267Z,6.10
2019-01-11T20:53:21.029Z,6.90
2019-01-11T20:55:51.206Z,5.43
2019-01-11T20:58:21.743Z,5.70
2019-01-11T21:00:52.248Z,6.20
2019-01-11T21:03:22.310Z,5.87
2019-01-11T21:05:52.574Z,4.53
2019-01-11T21:08:22.796Z,5.50
2019-01-11T21:10:53.015Z,5.23
2019-01-11T21:13:23.168Z,5.73
2019-01-11T21:15:53.318Z,7.53
2019-01-11T21:18:23.462Z,5.40
2019-01-11T21:21:06.427Z,5.73
2019-01-11T21:23:36.594Z,4.90
2019-01-11T21:26:07.059Z,4.67
2019-01-11T21:28:37.489Z,4.33
2019-01-11T21:31:07.571Z,5.47
2019-01-11T21:33:37.721Z,3.07
2019-01-11T21:36:08.812Z,3.15
2019-01-11T21:38:38.960Z,2.83
2019-01-11T21:41:09.040Z,3.80
2019-01-11T21:43:39.111Z,3.47
2019-01-11T21:46:09.207Z,3.97
2019-01-11T21:48:39.393Z,5.17
2019-01-11T21:51:10.025Z,3.07
2019-01-11T21:53:40.262Z,6.27
2019-01-11T21:56:10.503Z,4.07
2019-01-11T21:58:41.201Z,4.67
2019-01-11T22:01:11.448Z,5.33
2019-01-11T22:04:00.991Z,4.57
2019-01-11T22:06:31.491Z,5.73
2019-01-11T22:09:01.677Z,3.83
2019-01-11T22:11:34.061Z,5.07
2019-01-11T22:14:04.235Z,3.33
2019-01-11T22:16:34.668Z,4.67
2019-01-11T22:19:05.321Z,4.90
2019-01-11T22:21:35.743Z,5.20
2019-01-11T22:24:06.210Z,7.53
2019-01-11T22:26:36.754Z,7.30
2019-01-11T22:29:08.087Z,4.47
2019-01-11T22:31:38.578Z,5.57
2019-01-11T22:34:08.665Z,5.70
2019-01-11T22:36:38.918Z,6.33
2019-01-11T22:39:09.499Z,6.13
2019-01-11T22:41:39.562Z,4.80
2019-01-11T22:44:09.766Z,7.17
2019-01-11T22:49:20.802Z,7.40
2019-01-11T22:51:50.919Z,7.47
2019-01-11T22:54:21.040Z,5.53
2019-01-11T22:56:51.418Z,8.17
2019-01-11T22:59:21.532Z,5.00
2019-01-11T23:02:25.816Z,5.23
2019-01-11T23:04:56.239Z,4.50
2019-01-11T23:07:43.339Z,3.70
2019-01-11T23:10:31.550Z,3.63
2019-01-11T23:13:05.153Z,6.37
2019-01-11T23:15:40.578Z,4.03
2019-01-11T23:18:16.352Z,5.07
2019-01-11T23:20:48.004Z,5.30
2019-01-11T23:23:21.486Z,3.87
2019-01-11T23:25:51.698Z,4.10
2019-01-11T23:28:22.234Z,3.80
2019-01-11T23:30:52.355Z,8.30
2019-01-11T23:33:22.512Z,5.43
2019-01-11T23:38:41.634Z,7.23
2019-01-11T23:41:11.707Z,6.97
2019-01-11T23:43:43.035Z,8.60
2019-01-11T23:46:13.280Z,6.60
2019-01-11T23:48:43.402Z,5.20
2019-01-11T23:51:13.439Z,4.90
2019-01-11T23:53:43.607Z,4.63
2019-01-11T23:56:13.672Z,5.63
2019-01-11T23:58:43.995Z,5.60
